sensor_id;sensor_type;location;lat;lon;timestamp;pressure;altitude;pressure_sealevel;temperature;humidity
35023;BME280;21214;44.912;8.204;2023-04-04T00:00:32;99405.41;;;10.40;68.14
35023;BME280;21214;44.912;8.204;2023-04-04T00:02:58;99408.03;;;10.40;70.55
35023;BME280;21214;44.912;8.204;2023-04-04T00:05:23;99410.28;;;10.35;73.41
35023;BME280;21214;44.912;8.204;2023-04-04T00:07:48;99413.63;;;10.27;72.23
35023;BME280;21214;44.912;8.204;2023-04-04T00:10:15;99398.97;;;10.05;70.89
35023;BME280;21214;44.912;8.204;2023-04-04T00:12:41;99409.25;;;9.99;70.75
35023;BME280;21214;44.912;8.204;2023-04-04T00:15:07;99403.28;;;9.97;72.98
35023;BME280;21214;44.912;8.204;2023-04-04T00:17:32;99406.19;;;10.03;73.32
35023;BME280;21214;44.912;8.204;2023-04-04T00:19:58;99407.13;;;10.02;76.65
35023;BME280;21214;44.912;8.204;2023-04-04T00:22:23;99411.44;;;10.03;73.91
35023;BME280;21214;44.912;8.204;2023-04-04T00:24:49;99414.56;;;9.89;70.83
35023;BME280;21214;44.912;8.204;2023-04-04T00:27:14;99419.25;;;9.95;71.51
35023;BME280;21214;44.912;8.204;2023-04-04T00:29:40;99420.25;;;9.75;70.99
35023;BME280;21214;44.912;8.204;2023-04-04T00:32:06;99418.97;;;9.79;74.01
35023;BME280;21214;44.912;8.204;2023-04-04T00:34:31;99420.41;;;9.64;73.87
35023;BME280;21214;44.912;8.204;2023-04-04T00:36:57;99412.34;;;9.56;73.47
35023;BME280;21214;44.912;8.204;2023-04-04T00:39:23;99413.47;;;9.43;75.28
35023;BME280;21214;44.912;8.204;2023-04-04T00:41:50;99406.81;;;9.49;75.49
35023;BME280;21214;44.912;8.204;2023-04-04T00:44:16;99410.69;;;9.55;75.16
35023;BME280;21214;44.912;8.204;2023-04-04T00:46:42;99414.56;;;9.51;73.94
35023;BME280;21214;44.912;8.204;2023-04-04T00:49:07;99419.84;;;9.51;75.08
35023;BME280;21214;44.912;8.204;2023-04-04T00:51:33;99413.75;;;9.50;75.18
35023;BME280;21214;44.912;8.204;2023-04-04T00:53:58;99420.56;;;9.53;75.87
35023;BME280;21214;44.912;8.204;2023-04-04T00:56:25;99420.56;;;9.53;76.48
35023;BME280;21214;44.912;8.204;2023-04-04T00:58:50;99419.28;;;9.57;75.60
35023;BME280;21214;44.912;8.204;2023-04-04T01:01:16;99416.41;;;9.60;75.49
35023;BME280;21214;44.912;8.204;2023-04-04T01:03:41;99420.41;;;9.54;75.73
35023;BME280;21214;44.912;8.204;2023-04-04T01:06:07;99420.97;;;9.58;76.11
35023;BME280;21214;44.912;8.204;2023-04-04T01:08:33;99413.47;;;9.63;77.68
35023;BME280;21214;44.912;8.204;2023-04-04T01:11:00;99414.44;;;9.62;76.14
35023;BME280;21214;44.912;8.204;2023-04-04T01:13:26;99421.38;;;9.63;76.42
35023;BME280;21214;44.912;8.204;2023-04-04T01:15:53;99422.06;;;9.65;77.36
35023;BME280;21214;44.912;8.204;2023-04-04T01:18:19;99419.28;;;9.66;78.89
35023;BME280;21214;44.912;8.204;2023-04-04T01:20:53;99427.03;;;9.68;77.05
35023;BME280;21214;44.912;8.204;2023-04-04T01:23:20;99428.72;;;9.69;75.45
35023;BME280;21214;44.912;8.204;2023-04-04T01:25:47;99421.78;;;9.68;75.52
35023;BME280;21214;44.912;8.204;2023-04-04T01:28:13;99426.06;;;9.69;75.71
35023;BME280;21214;44.912;8.204;2023-04-04T01:30:39;99425.66;;;9.64;74.66
35023;BME280;21214;44.912;8.204;2023-04-04T01:35:36;99423.19;;;9.53;76.06
35023;BME280;21214;44.912;8.204;2023-04-04T01:40:31;99435.63;;;9.31;76.43
35023;BME280;21214;44.912;8.204;2023-04-04T01:43:02;99436.88;;;9.27;78.32
35023;BME280;21214;44.912;8.204;2023-04-04T01:45:30;99435.94;;;9.28;79.58
35023;BME280;21214;44.912;8.204;2023-04-04T01:47:58;99440.22;;;9.29;79.13
35023;BME280;21214;44.912;8.204;2023-04-04T01:50:24;99434.53;;;9.24;78.85
35023;BME280;21214;44.912;8.204;2023-04-04T01:52:52;99435.38;;;9.34;78.48
35023;BME280;21214;44.912;8.204;2023-04-04T01:55:17;99438.28;;;9.31;77.63
35023;BME280;21214;44.912;8.204;2023-04-04T01:57:42;99437.59;;;9.29;77.40
35023;BME280;21214;44.912;8.204;2023-04-04T02:00:08;99446.16;;;9.22;78.26
35023;BME280;21214;44.912;8.204;2023-04-04T02:02:41;99438.09;;;9.14;78.54
35023;BME280;21214;44.912;8.204;2023-04-04T02:05:07;99441.69;;;9.03;79.92
35023;BME280;21214;44.912;8.204;2023-04-04T02:07:33;99450.31;;;9.05;78.91
35023;BME280;21214;44.912;8.204;2023-04-04T02:09:59;99443.38;;;9.04;79.23
35023;BME280;21214;44.912;8.204;2023-04-04T02:12:25;99441.44;;;9.06;79.30
35023;BME280;21214;44.912;8.204;2023-04-04T02:14:51;99448.50;;;9.06;79.49
35023;BME280;21214;44.912;8.204;2023-04-04T02:17:16;99446.16;;;9.12;78.65
35023;BME280;21214;44.912;8.204;2023-04-04T02:19:42;99447.81;;;9.13;79.65
35023;BME280;21214;44.912;8.204;2023-04-04T02:22:07;99447.81;;;9.13;79.81
35023;BME280;21214;44.912;8.204;2023-04-04T02:24:33;99449.75;;;9.11;79.19
35023;BME280;21214;44.912;8.204;2023-04-04T02:27:00;99448.63;;;9.04;79.28
35023;BME280;21214;44.912;8.204;2023-04-04T02:29:25;99451.28;;;9.04;79.77
35023;BME280;21214;44.912;8.204;2023-04-04T02:31:51;99448.09;;;9.10;80.67
35023;BME280;21214;44.912;8.204;2023-04-04T02:34:17;99446.16;;;9.12;80.56
35023;BME280;21214;44.912;8.204;2023-04-04T02:36:44;99451.69;;;9.09;80.98
35023;BME280;21214;44.912;8.204;2023-04-04T02:39:11;99446.41;;;9.09;80.83
35023;BME280;21214;44.912;8.204;2023-04-04T02:41:38;99446.72;;;9.06;80.90
35023;BME280;21214;44.912;8.204;2023-04-04T02:44:03;99445.75;;;9.07;82.44
35023;BME280;21214;44.912;8.204;2023-04-04T02:46:30;99448.09;;;9.10;81.60
35023;BME280;21214;44.912;8.204;2023-04-04T02:49:01;99445.59;;;9.09;82.15
35023;BME280;21214;44.912;8.204;2023-04-04T02:51:29;99443.66;;;9.01;82.24
35023;BME280;21214;44.912;8.204;2023-04-04T02:53:56;99446.72;;;9.06;82.16
35023;BME280;21214;44.912;8.204;2023-04-04T02:56:27;99447.53;;;9.07;82.91
35023;BME280;21214;44.912;8.204;2023-04-04T02:58:53;99446.97;;;9.03;84.00
35023;BME280;21214;44.912;8.204;2023-04-04T03:01:18;99445.03;;;9.05;82.94
35023;BME280;21214;44.912;8.204;2023-04-04T03:03:44;99447.38;;;9.08;82.72
35023;BME280;21214;44.912;8.204;2023-04-04T03:06:10;99447.53;;;9.07;82.91
35023;BME280;21214;44.912;8.204;2023-04-04T03:08:36;99444.38;;;9.13;82.07
35023;BME280;21214;44.912;8.204;2023-04-04T03:11:01;99440.19;;;9.10;81.92
35023;BME280;21214;44.912;8.204;2023-04-04T03:13:27;99441.88;;;9.11;81.23
35023;BME280;21214;44.912;8.204;2023-04-04T03:15:57;99440.31;;;8.99;80.84
35023;BME280;21214;44.912;8.204;2023-04-04T03:18:25;99439.78;;;9.05;81.04
35023;BME280;21214;44.912;8.204;2023-04-04T03:20:50;99440.91;;;9.12;81.79
35023;BME280;21214;44.912;8.204;2023-04-04T03:23:16;99446.41;;;9.09;81.20
35023;BME280;21214;44.912;8.204;2023-04-04T03:25:42;99447.53;;;9.07;81.31
35023;BME280;21214;44.912;8.204;2023-04-04T03:28:08;99449.47;;;9.04;82.03
35023;BME280;21214;44.912;8.204;2023-04-04T03:30:34;99450.84;;;8.99;82.28
35023;BME280;21214;44.912;8.204;2023-04-04T03:33:02;99454.19;;;9.01;82.63
35023;BME280;21214;44.912;8.204;2023-04-04T03:35:28;99450.31;;;9.05;80.96
35023;BME280;21214;44.912;8.204;2023-04-04T03:37:53;99460.13;;;9.03;81.60
35023;BME280;21214;44.912;8.204;2023-04-04T03:40:19;99461.38;;;8.99;82.17
35023;BME280;21214;44.912;8.204;2023-04-04T03:42:44;99464.13;;;8.88;82.52
35023;BME280;21214;44.912;8.204;2023-04-04T03:45:13;99459.38;;;8.82;84.02
35023;BME280;21214;44.912;8.204;2023-04-04T03:47:40;99455.63;;;8.75;84.89
35023;BME280;21214;44.912;8.204;2023-04-04T03:50:06;99459.09;;;8.85;85.48
35023;BME280;21214;44.912;8.204;2023-04-04T03:52:36;99461.34;;;8.89;85.59
35023;BME280;21214;44.912;8.204;2023-04-04T03:55:01;99453.31;;;8.91;84.74
35023;BME280;21214;44.912;8.204;2023-04-04T03:57:27;99458.56;;;8.91;86.72
35023;BME280;21214;44.912;8.204;2023-04-04T03:59:52;99462.63;;;8.95;86.60
35023;BME280;21214;44.912;8.204;2023-04-04T04:02:20;99454.72;;;8.95;85.37
35023;BME280;21214;44.912;8.204;2023-04-04T04:04:45;99454.97;;;8.92;84.40
35023;BME280;21214;44.912;8.204;2023-04-04T04:07:11;99462.69;;;8.84;84.33
35023;BME280;21214;44.912;8.204;2023-04-04T04:09:36;99467.97;;;8.84;86.40
35023;BME280;21214;44.912;8.204;2023-04-04T04:12:02;99468.25;;;8.81;85.13
35023;BME280;21214;44.912;8.204;2023-04-04T04:14:28;99471.31;;;8.86;84.57
35023;BME280;21214;44.912;8.204;2023-04-04T04:16:55;99475.47;;;8.88;85.01
35023;BME280;21214;44.912;8.204;2023-04-04T04:19:21;99469.78;;;8.83;84.27
35023;BME280;21214;44.912;8.204;2023-04-04T04:21:46;99481.28;;;8.82;84.08
35023;BME280;21214;44.912;8.204;2023-04-04T04:24:12;99473.81;;;8.87;84.96
35023;BME280;21214;44.912;8.204;2023-04-04T04:26:37;99474.06;;;8.84;85.17
35023;BME280;21214;44.912;8.204;2023-04-04T04:29:03;99470.34;;;8.87;84.89
35023;BME280;21214;44.912;8.204;2023-04-04T04:31:31;99477.94;;;8.90;84.45
35023;BME280;21214;44.912;8.204;2023-04-04T04:33:57;99470.91;;;8.90;85.60
35023;BME280;21214;44.912;8.204;2023-04-04T04:36:26;99473.50;;;8.81;84.86
35023;BME280;21214;44.912;8.204;2023-04-04T04:39:00;99477.41;;;8.86;84.84
35023;BME280;21214;44.912;8.204;2023-04-04T04:41:29;99477.81;;;8.82;84.28
35023;BME280;21214;44.912;8.204;2023-04-04T04:43:54;99475.44;;;8.79;85.02
35023;BME280;21214;44.912;8.204;2023-04-04T04:46:23;99474.31;;;8.72;85.66
35023;BME280;21214;44.912;8.204;2023-04-04T04:48:49;99479.56;;;8.72;85.50
35023;BME280;21214;44.912;8.204;2023-04-04T04:51:16;99481.22;;;8.73;86.96
35023;BME280;21214;44.912;8.204;2023-04-04T04:53:46;99477.91;;;8.71;86.94
35023;BME280;21214;44.912;8.204;2023-04-04T04:56:12;99480.34;;;8.62;87.53
35023;BME280;21214;44.912;8.204;2023-04-04T04:58:41;99484.91;;;8.60;88.01
35023;BME280;21214;44.912;8.204;2023-04-04T05:01:09;99490.31;;;8.59;87.67
35023;BME280;21214;44.912;8.204;2023-04-04T05:03:37;99487.50;;;8.51;88.93
35023;BME280;21214;44.912;8.204;2023-04-04T05:06:06;99482.78;;;8.54;88.20
35023;BME280;21214;44.912;8.204;2023-04-04T05:08:33;99486.94;;;8.47;87.86
35023;BME280;21214;44.912;8.204;2023-04-04T05:11:09;99492.41;;;8.35;88.79
35023;BME280;21214;44.912;8.204;2023-04-04T05:13:35;99486.31;;;8.34;89.13
35023;BME280;21214;44.912;8.204;2023-04-04T05:16:02;99490.84;;;8.32;89.20
35023;BME280;21214;44.912;8.204;2023-04-04T05:18:28;99484.56;;;8.23;89.87
35023;BME280;21214;44.912;8.204;2023-04-04T05:20:54;99491.19;;;8.18;90.17
35023;BME280;21214;44.912;8.204;2023-04-04T05:23:23;99490.91;;;8.21;90.62
35023;BME280;21214;44.912;8.204;2023-04-04T05:25:52;99488.16;;;8.22;90.62
35023;BME280;21214;44.912;8.204;2023-04-04T05:28:20;99494.81;;;8.27;91.45
35023;BME280;21214;44.912;8.204;2023-04-04T05:30:47;99505.59;;;8.23;91.94
35023;BME280;21214;44.912;8.204;2023-04-04T05:33:17;99502.00;;;8.25;93.18
35023;BME280;21214;44.912;8.204;2023-04-04T05:35:49;99504.25;;;8.29;95.83
35023;BME280;21214;44.912;8.204;2023-04-04T05:38:16;99512.09;;;8.40;92.65
35023;BME280;21214;44.912;8.204;2023-04-04T05:40:44;99504.38;;;8.48;91.80
35023;BME280;21214;44.912;8.204;2023-04-04T05:43:12;99503.28;;;8.51;91.63
35023;BME280;21214;44.912;8.204;2023-04-04T05:45:51;99513.69;;;8.52;91.52
35023;BME280;21214;44.912;8.204;2023-04-04T05:48:16;99510.25;;;8.61;90.26
35023;BME280;21214;44.912;8.204;2023-04-04T05:50:50;99519.63;;;8.54;89.78
35023;BME280;21214;44.912;8.204;2023-04-04T05:53:19;99524.53;;;8.38;89.39
35023;BME280;21214;44.912;8.204;2023-04-04T05:55:51;99527.88;;;8.40;90.19
35023;BME280;21214;44.912;8.204;2023-04-04T05:58:18;99529.97;;;8.46;89.99
35023;BME280;21214;44.912;8.204;2023-04-04T06:00:52;99533.03;;;8.51;89.37
35023;BME280;21214;44.912;8.204;2023-04-04T06:03:17;99540.94;;;8.51;89.72
35023;BME280;21214;44.912;8.204;2023-04-04T06:05:48;99541.44;;;8.45;89.15
35023;BME280;21214;44.912;8.204;2023-04-04T06:08:15;99536.72;;;8.39;89.53
35023;BME280;21214;44.912;8.204;2023-04-04T06:10:40;99545.84;;;8.35;89.07
35023;BME280;21214;44.912;8.204;2023-04-04T06:13:06;99548.22;;;8.27;90.46
35023;BME280;21214;44.912;8.204;2023-04-04T06:15:32;99553.00;;;8.33;90.24
35023;BME280;21214;44.912;8.204;2023-04-04T06:17:58;99555.84;;;8.41;89.48
35023;BME280;21214;44.912;8.204;2023-04-04T06:20:23;99550.75;;;8.49;87.92
35023;BME280;21214;44.912;8.204;2023-04-04T06:22:50;99545.03;;;8.44;89.06
35023;BME280;21214;44.912;8.204;2023-04-04T06:25:16;99551.97;;;8.45;88.16
35023;BME280;21214;44.912;8.204;2023-04-04T06:27:42;99556.72;;;8.51;87.02
35023;BME280;21214;44.912;8.204;2023-04-04T06:30:07;99549.22;;;8.47;85.55
35023;BME280;21214;44.912;8.204;2023-04-04T06:32:34;99546.72;;;8.45;85.48
35023;BME280;21214;44.912;8.204;2023-04-04T06:35:02;99552.69;;;8.47;84.41
35023;BME280;21214;44.912;8.204;2023-04-04T06:37:42;99553.66;;;8.46;84.56
35023;BME280;21214;44.912;8.204;2023-04-04T06:40:12;99553.66;;;8.46;82.85
35023;BME280;21214;44.912;8.204;2023-04-04T06:42:46;99561.03;;;8.52;82.90
35023;BME280;21214;44.912;8.204;2023-04-04T06:45:11;99556.19;;;8.57;82.54
35023;BME280;21214;44.912;8.204;2023-04-04T06:47:37;99553.25;;;8.72;81.95
35023;BME280;21214;44.912;8.204;2023-04-04T06:50:02;99552.44;;;8.81;79.97
35023;BME280;21214;44.912;8.204;2023-04-04T06:52:28;99550.25;;;8.86;77.86
35023;BME280;21214;44.912;8.204;2023-04-04T06:54:53;99557.56;;;8.82;78.47
35023;BME280;21214;44.912;8.204;2023-04-04T06:57:19;99556.75;;;8.82;75.43
35023;BME280;21214;44.912;8.204;2023-04-04T06:59:45;99559.16;;;8.94;75.81
35023;BME280;21214;44.912;8.204;2023-04-04T07:02:10;99557.69;;;9.11;75.26
35023;BME280;21214;44.912;8.204;2023-04-04T07:04:35;99556.19;;;9.18;73.18
35023;BME280;21214;44.912;8.204;2023-04-04T07:07:03;99566.13;;;9.05;72.05
35023;BME280;21214;44.912;8.204;2023-04-04T07:09:29;99566.97;;;9.06;69.95
35023;BME280;21214;44.912;8.204;2023-04-04T07:11:54;99565.59;;;9.11;70.07
35023;BME280;21214;44.912;8.204;2023-04-04T07:14:20;99567.25;;;9.12;67.65
35023;BME280;21214;44.912;8.204;2023-04-04T07:16:49;99569.50;;;9.26;67.25
35023;BME280;21214;44.912;8.204;2023-04-04T07:19:14;99572.19;;;9.45;66.55
35023;BME280;21214;44.912;8.204;2023-04-04T07:21:41;99576.50;;;9.47;67.25
35023;BME280;21214;44.912;8.204;2023-04-04T07:24:06;99570.16;;;9.59;66.71
35023;BME280;21214;44.912;8.204;2023-04-04T07:26:32;99574.88;;;9.65;64.50
35023;BME280;21214;44.912;8.204;2023-04-04T07:28:59;99568.78;;;9.74;65.14
35023;BME280;21214;44.912;8.204;2023-04-04T07:31:24;99565.72;;;9.69;65.07
35023;BME280;21214;44.912;8.204;2023-04-04T07:33:50;99566.44;;;9.71;64.27
35023;BME280;21214;44.912;8.204;2023-04-04T07:36:18;99569.75;;;9.73;64.16
35023;BME280;21214;44.912;8.204;2023-04-04T07:38:43;99576.38;;;9.67;62.62
35023;BME280;21214;44.912;8.204;2023-04-04T07:41:09;99569.75;;;9.73;62.89
35023;BME280;21214;44.912;8.204;2023-04-04T07:43:36;99577.09;;;9.79;63.80
35023;BME280;21214;44.912;8.204;2023-04-04T07:46:01;99574.63;;;9.87;62.42
35023;BME280;21214;44.912;8.204;2023-04-04T07:48:27;99575.44;;;9.78;61.91
35023;BME280;21214;44.912;8.204;2023-04-04T07:50:52;99580.41;;;9.62;62.02
35023;BME280;21214;44.912;8.204;2023-04-04T07:53:18;99579.88;;;9.68;62.48
35023;BME280;21214;44.912;8.204;2023-04-04T07:55:43;99584.88;;;9.71;63.67
35023;BME280;21214;44.912;8.204;2023-04-04T07:58:09;99581.28;;;9.72;62.77
35023;BME280;21214;44.912;8.204;2023-04-04T08:00:34;99577.25;;;9.87;62.52
35023;BME280;21214;44.912;8.204;2023-04-04T08:03:01;99586.53;;;9.91;62.62
35023;BME280;21214;44.912;8.204;2023-04-04T08:05:26;99588.50;;;10.08;62.26
35023;BME280;21214;44.912;8.204;2023-04-04T08:07:52;99591.84;;;10.10;62.88
35023;BME280;21214;44.912;8.204;2023-04-04T08:10:17;99586.03;;;10.16;60.99
35023;BME280;21214;44.912;8.204;2023-04-04T08:12:43;99587.16;;;10.23;60.93
35023;BME280;21214;44.912;8.204;2023-04-04T08:15:09;99592.69;;;10.20;60.65
35023;BME280;21214;44.912;8.204;2023-04-04T08:17:35;99591.31;;;10.16;59.24
35023;BME280;21214;44.912;8.204;2023-04-04T08:20:01;99589.47;;;10.07;59.68
35023;BME280;21214;44.912;8.204;2023-04-04T08:22:28;99590.72;;;10.03;58.11
35023;BME280;21214;44.912;8.204;2023-04-04T08:24:53;99597.50;;;9.96;58.89
35023;BME280;21214;44.912;8.204;2023-04-04T08:27:20;99587.97;;;9.95;56.83
35023;BME280;21214;44.912;8.204;2023-04-04T08:29:45;99598.19;;;10.08;58.10
35023;BME280;21214;44.912;8.204;2023-04-04T08:32:12;99600.19;;;10.35;57.38
35023;BME280;21214;44.912;8.204;2023-04-04T08:34:39;99586.84;;;10.46;56.41
35023;BME280;21214;44.912;8.204;2023-04-04T08:37:04;99601.28;;;10.51;55.70
35023;BME280;21214;44.912;8.204;2023-04-04T08:39:30;99602.09;;;10.52;54.07
35023;BME280;21214;44.912;8.204;2023-04-04T08:42:00;99601.81;;;10.55;54.74
35023;BME280;21214;44.912;8.204;2023-04-04T08:44:26;99596.25;;;10.58;54.05
35023;BME280;21214;44.912;8.204;2023-04-04T08:46:52;99596.09;;;10.69;53.74
35023;BME280;21214;44.912;8.204;2023-04-04T08:49:18;99586.50;;;10.68;51.76
35023;BME280;21214;44.912;8.204;2023-04-04T08:51:47;99592.91;;;10.75;53.23
35023;BME280;21214;44.912;8.204;2023-04-04T08:54:13;99595.41;;;10.77;50.93
35023;BME280;21214;44.912;8.204;2023-04-04T08:56:41;99595.25;;;10.68;53.05
35023;BME280;21214;44.912;8.204;2023-04-04T08:59:06;99599.72;;;10.68;53.71
35023;BME280;21214;44.912;8.204;2023-04-04T09:01:32;99594.25;;;10.79;55.00
35023;BME280;21214;44.912;8.204;2023-04-04T09:03:57;99594.09;;;10.90;54.41
35023;BME280;21214;44.912;8.204;2023-04-04T09:06:24;99590.63;;;10.90;48.56
35023;BME280;21214;44.912;8.204;2023-04-04T09:08:50;99585.31;;;10.99;51.32
35023;BME280;21214;44.912;8.204;2023-04-04T09:11:18;99591.97;;;11.03;47.49
35023;BME280;21214;44.912;8.204;2023-04-04T09:13:44;99593.75;;;11.13;47.00
35023;BME280;21214;44.912;8.204;2023-04-04T09:16:10;99597.72;;;11.26;47.12
35023;BME280;21214;44.912;8.204;2023-04-04T09:18:36;99588.47;;;11.40;45.99
35023;BME280;21214;44.912;8.204;2023-04-04T09:21:07;99597.69;;;11.36;45.20
35023;BME280;21214;44.912;8.204;2023-04-04T09:23:33;99588.47;;;11.40;44.16
35023;BME280;21214;44.912;8.204;2023-04-04T09:25:59;99591.88;;;11.50;44.60
35023;BME280;21214;44.912;8.204;2023-04-04T09:28:24;99587.69;;;11.57;44.08
35023;BME280;21214;44.912;8.204;2023-04-04T09:30:50;99590.38;;;11.47;43.04
35023;BME280;21214;44.912;8.204;2023-04-04T09:33:16;99598.69;;;11.53;43.62
35023;BME280;21214;44.912;8.204;2023-04-04T09:35:43;99593.41;;;11.53;42.30
35023;BME280;21214;44.912;8.204;2023-04-04T09:38:08;99596.72;;;11.55;41.55
35023;BME280;21214;44.912;8.204;2023-04-04T09:40:37;99592.44;;;11.54;41.19
35023;BME280;21214;44.912;8.204;2023-04-04T09:43:06;99590.03;;;11.60;41.55
35023;BME280;21214;44.912;8.204;2023-04-04T09:45:35;99599.31;;;11.64;40.99
35023;BME280;21214;44.912;8.204;2023-04-04T09:48:03;99598.63;;;11.62;39.72
35023;BME280;21214;44.912;8.204;2023-04-04T09:50:30;99598.59;;;11.72;39.36
35023;BME280;21214;44.912;8.204;2023-04-04T09:52:58;99596.06;;;11.80;39.79
35023;BME280;21214;44.912;8.204;2023-04-04T09:55:34;99597.41;;;11.84;38.76
35023;BME280;21214;44.912;8.204;2023-04-04T09:58:13;99597.03;;;11.97;39.19
35023;BME280;21214;44.912;8.204;2023-04-04T10:00:44;99597.72;;;11.99;39.09
35023;BME280;21214;44.912;8.204;2023-04-04T10:03:12;99599.03;;;11.95;38.38
35023;BME280;21214;44.912;8.204;2023-04-04T10:05:38;99607.34;;;12.00;38.58
35023;BME280;21214;44.912;8.204;2023-04-04T10:08:14;99599.16;;;12.11;37.36
35023;BME280;21214;44.912;8.204;2023-04-04T10:11:02;99603.09;;;12.07;38.20
35023;BME280;21214;44.912;8.204;2023-04-04T10:13:28;99594.47;;;12.22;38.21
35023;BME280;21214;44.912;8.204;2023-04-04T10:15:55;99593.72;;;12.30;37.55
35023;BME280;21214;44.912;8.204;2023-04-04T10:18:28;99599.03;;;12.30;38.17
35023;BME280;21214;44.912;8.204;2023-04-04T10:20:54;99607.47;;;12.16;36.91
35023;BME280;21214;44.912;8.204;2023-04-04T10:23:21;99596.97;;;12.24;36.96
35023;BME280;21214;44.912;8.204;2023-04-04T10:25:48;99597.03;;;12.32;37.73
35023;BME280;21214;44.912;8.204;2023-04-04T10:28:14;99595.91;;;12.17;37.26
35023;BME280;21214;44.912;8.204;2023-04-04T10:30:48;99601.44;;;12.06;36.57
35023;BME280;21214;44.912;8.204;2023-04-04T10:33:38;99606.72;;;12.06;37.26
35023;BME280;21214;44.912;8.204;2023-04-04T10:36:00;99596.91;;;12.16;38.13
35023;BME280;21214;44.912;8.204;2023-04-04T10:38:28;99595.53;;;12.29;38.11
35023;BME280;21214;44.912;8.204;2023-04-04T10:40:58;99600.03;;;12.37;39.00
35023;BME280;21214;44.912;8.204;2023-04-04T10:43:24;99598.09;;;12.39;38.00
35023;BME280;21214;44.912;8.204;2023-04-04T10:45:55;99584.16;;;12.37;38.28
35023;BME280;21214;44.912;8.204;2023-04-04T10:48:25;99599.03;;;12.30;37.57
35023;BME280;21214;44.912;8.204;2023-04-04T10:50:51;99585.00;;;12.38;37.31
35023;BME280;21214;44.912;8.204;2023-04-04T10:53:16;99584.59;;;12.50;36.73
35023;BME280;21214;44.912;8.204;2023-04-04T10:55:42;99584.00;;;12.56;36.66
35023;BME280;21214;44.912;8.204;2023-04-04T10:58:10;99577.97;;;12.46;37.30
35023;BME280;21214;44.912;8.204;2023-04-04T11:00:51;99573.03;;;12.51;38.00
35023;BME280;21214;44.912;8.204;2023-04-04T11:03:19;99575.75;;;12.59;38.97
35023;BME280;21214;44.912;8.204;2023-04-04T11:05:45;99576.13;;;12.64;38.65
35023;BME280;21214;44.912;8.204;2023-04-04T11:08:21;99575.28;;;12.64;38.21
35023;BME280;21214;44.912;8.204;2023-04-04T11:10:49;99574.13;;;12.41;38.45
35023;BME280;21214;44.912;8.204;2023-04-04T11:13:31;99573.66;;;12.45;37.54
35023;BME280;21214;44.912;8.204;2023-04-04T11:18:44;99557.34;;;12.32;37.18
35023;BME280;21214;44.912;8.204;2023-04-04T11:21:12;99558.75;;;12.44;37.64
35023;BME280;21214;44.912;8.204;2023-04-04T11:28:57;99562.28;;;12.79;37.70
35023;BME280;21214;44.912;8.204;2023-04-04T11:31:24;99560.38;;;12.89;37.52
35023;BME280;21214;44.912;8.204;2023-04-04T11:33:53;99554.13;;;12.98;37.86
35023;BME280;21214;44.912;8.204;2023-04-04T11:36:24;99552.41;;;13.15;38.28
35023;BME280;21214;44.912;8.204;2023-04-04T11:39:25;99553.97;;;13.25;38.46
35023;BME280;21214;44.912;8.204;2023-04-04T11:44:30;99553.03;;;13.50;37.02
35023;BME280;21214;44.912;8.204;2023-04-04T11:47:17;99551.75;;;13.63;36.73
35023;BME280;21214;44.912;8.204;2023-04-04T11:49:42;99534.88;;;13.72;36.21
35023;BME280;21214;44.912;8.204;2023-04-04T11:52:08;99537.88;;;13.77;36.59
35023;BME280;21214;44.912;8.204;2023-04-04T11:54:35;99537.38;;;13.89;36.65
35023;BME280;21214;44.912;8.204;2023-04-04T11:57:01;99534.56;;;13.91;36.29
35023;BME280;21214;44.912;8.204;2023-04-04T11:59:27;99535.88;;;14.03;36.17
35023;BME280;21214;44.912;8.204;2023-04-04T12:01:54;99536.88;;;14.02;35.79
35023;BME280;21214;44.912;8.204;2023-04-04T12:04:20;99526.94;;;13.96;35.79
35023;BME280;21214;44.912;8.204;2023-04-04T12:06:47;99525.59;;;13.76;35.73
35023;BME280;21214;44.912;8.204;2023-04-04T12:09:15;99525.94;;;13.89;36.57
35023;BME280;21214;44.912;8.204;2023-04-04T12:11:42;99526.25;;;14.02;36.10
35023;BME280;21214;44.912;8.204;2023-04-04T12:16:41;99525.94;;;14.21;34.97
35023;BME280;21214;44.912;8.204;2023-04-04T12:19:07;99515.31;;;14.21;35.54
35023;BME280;21214;44.912;8.204;2023-04-04T12:21:32;99511.03;;;14.12;35.23
35023;BME280;21214;44.912;8.204;2023-04-04T12:23:58;99515.31;;;14.21;34.96
35023;BME280;21214;44.912;8.204;2023-04-04T12:26:24;99515.00;;;14.24;34.51
35023;BME280;21214;44.912;8.204;2023-04-04T12:28:55;99508.72;;;14.42;34.92
35023;BME280;21214;44.912;8.204;2023-04-04T12:31:23;99509.34;;;14.44;34.18
35023;BME280;21214;44.912;8.204;2023-04-04T12:33:49;99503.38;;;14.58;33.70
35023;BME280;21214;44.912;8.204;2023-04-04T12:36:25;99503.00;;;14.77;33.90
35023;BME280;21214;44.912;8.204;2023-04-04T12:39:03;99499.28;;;14.86;34.00
35023;BME280;21214;44.912;8.204;2023-04-04T12:41:30;99511.59;;;14.87;35.11
35023;BME280;21214;44.912;8.204;2023-04-04T12:44:24;99505.22;;;14.96;34.31
35023;BME280;21214;44.912;8.204;2023-04-04T12:46:44;99502.84;;;15.18;33.65
35023;BME280;21214;44.912;8.204;2023-04-04T12:49:10;99498.88;;;15.13;32.45
35023;BME280;21214;44.912;8.204;2023-04-04T12:51:35;99503.09;;;14.92;32.84
35023;BME280;21214;44.912;8.204;2023-04-04T12:54:05;99502.56;;;15.04;32.54
35023;BME280;21214;44.912;8.204;2023-04-04T12:56:31;99490.81;;;15.30;32.23
35023;BME280;21214;44.912;8.204;2023-04-04T12:58:59;99493.34;;;15.54;31.83
35023;BME280;21214;44.912;8.204;2023-04-04T13:01:26;99486.94;;;15.71;31.56
35023;BME280;21214;44.912;8.204;2023-04-04T13:03:52;99488.75;;;15.71;32.41
35023;BME280;21214;44.912;8.204;2023-04-04T13:06:18;99476.91;;;15.73;31.89
35023;BME280;21214;44.912;8.204;2023-04-04T13:08:51;99474.34;;;15.65;31.46
35023;BME280;21214;44.912;8.204;2023-04-04T13:11:20;99483.84;;;15.51;31.19
35023;BME280;21214;44.912;8.204;2023-04-04T13:13:46;99473.97;;;15.68;31.20
35023;BME280;21214;44.912;8.204;2023-04-04T13:16:27;99475.50;;;15.63;31.00
35023;BME280;21214;44.912;8.204;2023-04-04T13:18:53;99472.50;;;15.35;31.29
35023;BME280;21214;44.912;8.204;2023-04-04T13:21:18;99475.81;;;15.37;31.64
35023;BME280;21214;44.912;8.204;2023-04-04T13:23:44;99466.13;;;15.44;31.42
35023;BME280;21214;44.912;8.204;2023-04-04T13:26:10;99468.34;;;15.63;30.80